sensor_id;sensor_type;location;lat;lon;timestamp;P1;durP1;ratioP1;P2;durP2;ratioP2
77148;SDS011;66122;47.130;16.844;2023-02-02T00:01:06;3.08;;;1.00;;
77148;SDS011;66122;47.130;16.844;2023-02-02T00:11:10;3.07;;;0.80;;
77148;SDS011;66122;47.130;16.844;2023-02-02T00:21:12;3.30;;;0.77;;
77148;SDS011;66122;47.130;16.844;2023-02-02T00:31:15;1.92;;;0.65;;
77148;SDS011;66122;47.130;16.844;2023-02-02T00:41:18;2.60;;;1.00;;
77148;SDS011;66122;47.130;16.844;2023-02-02T00:51:21;3.63;;;0.80;;
77148;SDS011;66122;47.130;16.844;2023-02-02T01:01:23;4.85;;;1.67;;
77148;SDS011;66122;47.130;16.844;2023-02-02T01:11:26;2.43;;;0.77;;
77148;SDS011;66122;47.130;16.844;2023-02-02T01:21:28;2.63;;;1.10;;
77148;SDS011;66122;47.130;16.844;2023-02-02T01:31:31;3.67;;;1.13;;
77148;SDS011;66122;47.130;16.844;2023-02-02T01:41:35;3.90;;;1.33;;
77148;SDS011;66122;47.130;16.844;2023-02-02T01:52:12;6.97;;;1.60;;
77148;SDS011;66122;47.130;16.844;2023-02-02T02:02:07;2.90;;;0.70;;
77148;SDS011;66122;47.130;16.844;2023-02-02T02:12:13;0.28;;;0.10;;
77148;SDS011;66122;47.130;16.844;2023-02-02T02:22:17;0.90;;;0.10;;
77148;SDS011;66122;47.130;16.844;2023-02-02T02:43:05;0.70;;;0.15;;
77148;SDS011;66122;47.130;16.844;2023-02-02T02:53:22;0.30;;;0.00;;
77148;SDS011;66122;47.130;16.844;2023-02-02T03:13:39;0.10;;;0.00;;
77148;SDS011;66122;47.130;16.844;2023-02-02T03:23:42;0.20;;;0.10;;
77148;SDS011;66122;47.130;16.844;2023-02-02T03:33:45;0.30;;;0.10;;
77148;SDS011;66122;47.130;16.844;2023-02-02T03:43:47;0.60;;;0.10;;
77148;SDS011;66122;47.130;16.844;2023-02-02T03:53:50;1.90;;;0.20;;
77148;SDS011;66122;47.130;16.844;2023-02-02T04:03:53;0.33;;;0.10;;
77148;SDS011;66122;47.130;16.844;2023-02-02T04:13:55;0.30;;;0.00;;
77148;SDS011;66122;47.130;16.844;2023-02-02T04:23:58;0.70;;;0.10;;
77148;SDS011;66122;47.130;16.844;2023-02-02T04:34:01;0.60;;;0.20;;
77148;SDS011;66122;47.130;16.844;2023-02-02T04:44:04;0.50;;;0.10;;
77148;SDS011;66122;47.130;16.844;2023-02-02T04:54:07;1.83;;;0.88;;
77148;SDS011;66122;47.130;16.844;2023-02-02T05:04:10;1.73;;;0.90;;
77148;SDS011;66122;47.130;16.844;2023-02-02T05:14:13;1.27;;;0.40;;
77148;SDS011;66122;47.130;16.844;2023-02-02T05:24:19;5.00;;;1.80;;
77148;SDS011;66122;47.130;16.844;2023-02-02T05:34:22;12.23;;;3.08;;
77148;SDS011;66122;47.130;16.844;2023-02-02T05:44:24;3.13;;;0.80;;
77148;SDS011;66122;47.130;16.844;2023-02-02T05:54:27;19.60;;;8.80;;
77148;SDS011;66122;47.130;16.844;2023-02-02T06:04:29;10.60;;;4.57;;
77148;SDS011;66122;47.130;16.844;2023-02-02T06:14:32;10.00;;;4.83;;
77148;SDS011;66122;47.130;16.844;2023-02-02T06:24:35;6.23;;;1.83;;
77148;SDS011;66122;47.130;16.844;2023-02-02T06:34:37;5.47;;;1.80;;
77148;SDS011;66122;47.130;16.844;2023-02-02T06:44:40;1.65;;;0.40;;
77148;SDS011;66122;47.130;16.844;2023-02-02T06:54:42;3.10;;;0.30;;
77148;SDS011;66122;47.130;16.844;2023-02-02T07:04:45;0.60;;;0.10;;
77148;SDS011;66122;47.130;16.844;2023-02-02T07:14:48;0.68;;;0.10;;
77148;SDS011;66122;47.130;16.844;2023-02-02T07:24:50;2.27;;;0.10;;
77148;SDS011;66122;47.130;16.844;2023-02-02T07:34:53;1.40;;;0.40;;
77148;SDS011;66122;47.130;16.844;2023-02-02T07:44:55;1.77;;;0.32;;
77148;SDS011;66122;47.130;16.844;2023-02-02T07:55:23;1.03;;;0.30;;
77148;SDS011;66122;47.130;16.844;2023-02-02T08:05:25;0.87;;;0.10;;
77148;SDS011;66122;47.130;16.844;2023-02-02T08:15:29;1.10;;;0.30;;
77148;SDS011;66122;47.130;16.844;2023-02-02T08:25:32;0.40;;;0.10;;
77148;SDS011;66122;47.130;16.844;2023-02-02T08:35:44;0.20;;;0.10;;
77148;SDS011;66122;47.130;16.844;2023-02-02T08:45:57;0.47;;;0.10;;
77148;SDS011;66122;47.130;16.844;2023-02-02T08:56:17;0.70;;;0.20;;
77148;SDS011;66122;47.130;16.844;2023-02-02T09:06:25;0.70;;;0.10;;
77148;SDS011;66122;47.130;16.844;2023-02-02T09:16:32;2.03;;;0.37;;
77148;SDS011;66122;47.130;16.844;2023-02-02T09:26:36;1.40;;;0.30;;
77148;SDS011;66122;47.130;16.844;2023-02-02T09:36:40;1.23;;;0.30;;
77148;SDS011;66122;47.130;16.844;2023-02-02T09:57:18;6.28;;;1.63;;
77148;SDS011;66122;47.130;16.844;2023-02-02T10:07:47;5.47;;;1.70;;
77148;SDS011;66122;47.130;16.844;2023-02-02T10:17:54;1.57;;;0.40;;
77148;SDS011;66122;47.130;16.844;2023-02-02T10:28:03;2.23;;;0.20;;
77148;SDS011;66122;47.130;16.844;2023-02-02T10:38:24;1.48;;;0.30;;
77148;SDS011;66122;47.130;16.844;2023-02-02T10:48:45;1.27;;;0.13;;
77148;SDS011;66122;47.130;16.844;2023-02-02T10:58:52;2.00;;;0.30;;
77148;SDS011;66122;47.130;16.844;2023-02-02T11:08:56;3.28;;;0.60;;
77148;SDS011;66122;47.130;16.844;2023-02-02T11:19:08;1.90;;;0.37;;
77148;SDS011;66122;47.130;16.844;2023-02-02T11:50:30;2.00;;;0.50;;
77148;SDS011;66122;47.130;16.844;2023-02-02T12:00:33;0.57;;;0.10;;
77148;SDS011;66122;47.130;16.844;2023-02-02T12:10:58;2.17;;;0.27;;
77148;SDS011;66122;47.130;16.844;2023-02-02T12:21:04;4.45;;;0.82;;
77148;SDS011;66122;47.130;16.844;2023-02-02T13:12:21;4.50;;;0.93;;
77148;SDS011;66122;47.130;16.844;2023-02-02T13:22:27;6.07;;;1.88;;
77148;SDS011;66122;47.130;16.844;2023-02-02T13:32:35;4.97;;;1.03;;
77148;SDS011;66122;47.130;16.844;2023-02-02T14:03:41;9.38;;;2.75;;
77148;SDS011;66122;47.130;16.844;2023-02-02T14:13:52;4.07;;;0.93;;
77148;SDS011;66122;47.130;16.844;2023-02-02T14:55:20;0.50;;;0.10;;
77148;SDS011;66122;47.130;16.844;2023-02-02T15:15:40;0.70;;;0.10;;
77148;SDS011;66122;47.130;16.844;2023-02-02T15:36:09;1.23;;;0.23;;
77148;SDS011;66122;47.130;16.844;2023-02-02T15:46:16;0.60;;;0.10;;
77148;SDS011;66122;47.130;16.844;2023-02-02T15:56:27;1.50;;;0.10;;
77148;SDS011;66122;47.130;16.844;2023-02-02T16:06:31;2.93;;;1.00;;
77148;SDS011;66122;47.130;16.844;2023-02-02T16:16:37;0.63;;;0.10;;
77148;SDS011;66122;47.130;16.844;2023-02-02T16:26:41;2.40;;;0.20;;
77148;SDS011;66122;47.130;16.844;2023-02-02T16:37:02;0.90;;;0.20;;
77148;SDS011;66122;47.130;16.844;2023-02-02T16:47:29;0.52;;;0.10;;
77148;SDS011;66122;47.130;16.844;2023-02-02T16:57:34;1.07;;;0.20;;
77148;SDS011;66122;47.130;16.844;2023-02-02T17:07:38;1.70;;;0.33;;
77148;SDS011;66122;47.130;16.844;2023-02-02T17:17:47;2.43;;;0.70;;
77148;SDS011;66122;47.130;16.844;2023-02-02T17:27:50;3.10;;;0.77;;
77148;SDS011;66122;47.130;16.844;2023-02-02T17:37:54;2.60;;;0.70;;
77148;SDS011;66122;47.130;16.844;2023-02-02T17:47:59;2.30;;;0.37;;
77148;SDS011;66122;47.130;16.844;2023-02-02T17:58:02;4.22;;;0.77;;
77148;SDS011;66122;47.130;16.844;2023-02-02T18:08:05;2.27;;;0.40;;
77148;SDS011;66122;47.130;16.844;2023-02-02T18:18:09;2.17;;;0.60;;
77148;SDS011;66122;47.130;16.844;2023-02-02T18:28:13;0.50;;;0.10;;
77148;SDS011;66122;47.130;16.844;2023-02-02T18:38:19;2.28;;;0.28;;
77148;SDS011;66122;47.130;16.844;2023-02-02T18:48:22;3.27;;;0.80;;
77148;SDS011;66122;47.130;16.844;2023-02-02T18:58:25;0.83;;;0.20;;
77148;SDS011;66122;47.130;16.844;2023-02-02T19:08:28;2.72;;;0.93;;
77148;SDS011;66122;47.130;16.844;2023-02-02T19:18:34;3.80;;;1.80;;
77148;SDS011;66122;47.130;16.844;2023-02-02T19:28:37;2.23;;;0.40;;
77148;SDS011;66122;47.130;16.844;2023-02-02T19:38:40;9.13;;;3.78;;
77148;SDS011;66122;47.130;16.844;2023-02-02T19:48:43;5.80;;;2.57;;
77148;SDS011;66122;47.130;16.844;2023-02-02T19:58:47;5.03;;;1.73;;
77148;SDS011;66122;47.130;16.844;2023-02-02T20:08:50;11.75;;;5.10;;
77148;SDS011;66122;47.130;16.844;2023-02-02T20:18:54;4.75;;;2.25;;
77148;SDS011;66122;47.130;16.844;2023-02-02T20:28:59;6.83;;;1.97;;
77148;SDS011;66122;47.130;16.844;2023-02-02T20:49:23;7.70;;;3.25;;
77148;SDS011;66122;47.130;16.844;2023-02-02T20:59:28;12.30;;;4.80;;
77148;SDS011;66122;47.130;16.844;2023-02-02T21:09:30;10.37;;;4.40;;
77148;SDS011;66122;47.130;16.844;2023-02-02T21:19:33;7.47;;;3.55;;
77148;SDS011;66122;47.130;16.844;2023-02-02T21:29:36;4.57;;;2.23;;
77148;SDS011;66122;47.130;16.844;2023-02-02T21:39:39;7.73;;;2.70;;
77148;SDS011;66122;47.130;16.844;2023-02-02T21:49:49;5.25;;;2.20;;
77148;SDS011;66122;47.130;16.844;2023-02-02T21:59:54;5.72;;;0.95;;
77148;SDS011;66122;47.130;16.844;2023-02-02T22:09:58;1.47;;;0.47;;
77148;SDS011;66122;47.130;16.844;2023-02-02T22:20:02;3.23;;;0.20;;
77148;SDS011;66122;47.130;16.844;2023-02-02T22:40:31;2.10;;;0.70;;
77148;SDS011;66122;47.130;16.844;2023-02-02T22:50:34;5.10;;;0.70;;
77148;SDS011;66122;47.130;16.844;2023-02-02T23:00:36;4.03;;;1.73;;
77148;SDS011;66122;47.130;16.844;2023-02-02T23:10:39;3.13;;;0.70;;
77148;SDS011;66122;47.130;16.844;2023-02-02T23:20:42;2.80;;;0.77;;
77148;SDS011;66122;47.130;16.844;2023-02-02T23:30:45;3.05;;;0.52;;
77148;SDS011;66122;47.130;16.844;2023-02-02T23:40:48;14.93;;;3.35;;
77148;SDS011;66122;47.130;16.844;2023-02-02T23:50:51;13.23;;;2.60;;
